Time;durP1;ratioP1;P1;durP2;ratioP2;P2;SDS_P1;SDS_P2;PMS_P1;PMS_P2;Temp;Humidity;BMP_temperature;BMP_pressure;BME280_temperature;BME280_humidity;BME280_pressure;Samples;Min_cycle;Max_cycle;Signal;HPM_P1;HPM_P2
2022/01/18 00:01:13;;;;;;;34.47;6.20;;;;;;;;;;5128815;27;20066;-65
2022/01/18 00:03:40;;;;;;;32.83;6.15;;;;;;;;;;5138240;27;20071;-65
2022/01/18 00:06:06;;;;;;;33.72;6.38;;;;;;;;;;5148230;27;20076;-65
2022/01/18 00:08:33;;;;;;;29.00;6.07;;;;;;;;;;5152158;27;20053;-65
2022/01/18 00:10:59;;;;;;;40.50;6.40;;;;;;;;;;5152767;27;20862;-65
2022/01/18 00:13:38;;;;;;;36.50;5.95;;;;;;;;;;5149698;27;20146;-65
2022/01/18 00:18:33;;;;;;;41.65;6.07;;;;;;;;;;5131842;27;20048;-65
2022/01/18 00:23:51;;;;;;;35.08;6.88;;;;;;;;;;5148685;27;20086;-65
2022/01/18 00:26:18;;;;;;;36.70;5.82;;;;;;;;;;5152727;27;20074;-65
2022/01/18 00:28:50;;;;;;;35.85;7.07;;;;;;;;;;5151768;27;20055;-65
2022/01/18 00:34:07;;;;;;;;;;;;;;;;;;5139038;27;20124;-65
2022/01/18 00:37:25;;;;;;;20.48;5.60;;;;;;;;;;5151505;27;45834;-65
2022/01/18 00:39:27;;;;;;;38.38;7.28;;;;;;;;;;5141121;27;20055;-65
2022/01/18 00:41:54;;;;;;;26.05;5.82;;;;;;;;;;5152424;27;20065;-65
2022/01/18 00:44:20;;;;;;;28.23;6.20;;;;;;;;;;5145120;27;20130;-65
2022/01/18 00:46:47;;;;;;;20.50;6.43;;;;;;;;;;5151355;27;20051;-65
2022/01/18 00:49:14;;;;;;;23.58;6.90;;;;;;;;;;5151662;27;20058;-65
2022/01/18 00:51:41;;;;;;;20.85;5.93;;;;;;;;;;5148585;27;20051;-65
2022/01/18 00:54:10;;;;;;;21.80;6.03;;;;;;;;;;5135908;27;20583;-65
2022/01/18 00:56:40;;;;;;;20.75;5.80;;;;;;;;;;5151545;27;20059;-65
2022/01/18 00:59:07;;;;;;;25.13;5.78;;;;;;;;;;5151247;27;20051;-65
2022/01/18 01:01:34;;;;;;;18.50;5.10;;;;;;;;;;5136477;27;20052;-65
2022/01/18 01:04:03;;;;;;;21.08;6.10;;;;;;;;;;5133701;27;20051;-65
2022/01/18 01:06:29;;;;;;;;;;;;;;;;;;5151905;27;20508;-65
2022/01/18 01:08:56;;;;;;;18.27;6.07;;;;;;;;;;5150970;27;45761;-65
2022/01/18 01:11:23;;;;;;;17.17;6.30;;;;;;;;;;5152145;27;20047;-65
2022/01/18 01:13:51;;;;;;;19.10;6.22;;;;;;;;;;5149284;27;20062;-65
2022/01/18 01:33:38;;;;;;;13.85;5.72;;;;;;;;;;5093755;27;20055;-64
2022/01/18 01:46:26;;;;;;;17.30;6.43;;;;;;;;;;5151693;27;20507;-65
2022/01/18 01:48:55;;;;;;;15.88;7.10;;;;;;;;;;5150545;27;20058;-64
2022/01/18 01:51:29;;;;;;;22.60;7.53;;;;;;;;;;5150824;27;20145;-64
2022/01/18 01:53:56;;;;;;;16.60;5.88;;;;;;;;;;5149076;27;20594;-64
2022/01/18 01:56:23;;;;;;;15.85;6.85;;;;;;;;;;5136481;27;20532;-64
2022/01/18 01:58:49;;;;;;;21.48;6.85;;;;;;;;;;5130348;27;20527;-65
2022/01/18 02:01:16;;;;;;;18.92;6.35;;;;;;;;;;5130662;27;20582;-65
2022/01/18 02:03:43;;;;;;;12.45;6.15;;;;;;;;;;5130827;27;20051;-65
2022/01/18 02:06:09;;;;;;;17.85;6.75;;;;;;;;;;5130861;27;20052;-64
2022/01/18 02:08:36;;;;;;;23.15;7.40;;;;;;;;;;5130710;27;20054;-64
2022/01/18 02:11:03;;;;;;;20.98;7.05;;;;;;;;;;5130654;27;20696;-65
2022/01/18 02:13:29;;;;;;;20.85;7.38;;;;;;;;;;5140981;27;20061;-65
2022/01/18 02:16:14;;;;;;;25.85;7.38;;;;;;;;;;5150189;27;20127;-64
2022/01/18 02:24:12;;;;;;;26.27;7.75;;;;;;;;;;5147472;27;20056;-65
2022/01/18 02:26:38;;;;;;;22.30;7.20;;;;;;;;;;5149824;27;20063;-65
2022/01/18 02:29:06;;;;;;;36.85;8.15;;;;;;;;;;5149893;27;20100;-65
2022/01/18 02:31:33;;;;;;;27.10;7.60;;;;;;;;;;5129780;27;20056;-65
2022/01/18 02:34:10;;;;;;;23.98;7.85;;;;;;;;;;5129790;27;20050;-65
2022/01/18 02:36:37;;;;;;;20.77;7.60;;;;;;;;;;5129629;27;20058;-65
2022/01/18 02:39:04;;;;;;;21.80;7.00;;;;;;;;;;5129219;27;20059;-64
2022/01/18 02:41:32;;;;;;;31.40;7.30;;;;;;;;;;5129669;27;20052;-64
2022/01/18 02:44:05;;;;;;;22.35;7.38;;;;;;;;;;5142856;27;20142;-64
2022/01/18 02:46:32;;;;;;;30.13;7.15;;;;;;;;;;5129228;27;20055;-65
2022/01/18 02:48:59;;;;;;;30.88;7.38;;;;;;;;;;5128966;27;20398;-65
2022/01/18 02:51:25;;;;;;;42.13;7.75;;;;;;;;;;5130239;27;20059;-64
2022/01/18 02:53:52;;;;;;;24.27;7.13;;;;;;;;;;5128231;27;20058;-64
2022/01/18 02:56:18;;;;;;;20.27;6.95;;;;;;;;;;5129249;27;20055;-65
2022/01/18 02:58:45;;;;;;;61.60;8.38;;;;;;;;;;5129401;27;20056;-65
2022/01/18 03:03:57;;;;;;;42.40;9.95;;;;;;;;;;5140908;27;20051;-65
2022/01/18 03:06:23;;;;;;;34.95;8.07;;;;;;;;;;5149284;27;20059;-64
2022/01/18 03:08:49;;;;;;;68.35;9.43;;;;;;;;;;5150259;27;20051;-65
2022/01/18 03:11:16;;;;;;;92.97;9.10;;;;;;;;;;5149882;27;20142;-64
2022/01/18 03:13:44;;;;;;;25.55;8.55;;;;;;;;;;5147732;27;20135;-64
2022/01/18 03:16:10;;;;;;;48.17;8.43;;;;;;;;;;5149380;27;20509;-64
2022/01/18 03:18:37;;;;;;;39.17;8.02;;;;;;;;;;5149463;27;20051;-65
2022/01/18 03:21:03;;;;;;;27.20;7.20;;;;;;;;;;5149893;27;20144;-65
2022/01/18 03:23:29;;;;;;;24.15;8.13;;;;;;;;;;5146066;27;20051;-65
2022/01/18 03:25:58;;;;;;;59.00;9.02;;;;;;;;;;5149080;27;20055;-65
2022/01/18 03:28:26;;;;;;;39.30;8.27;;;;;;;;;;5149565;27;20040;-65
2022/01/18 03:30:58;;;;;;;68.70;8.30;;;;;;;;;;5148743;27;20051;-65
2022/01/18 03:33:25;;;;;;;36.45;7.97;;;;;;;;;;5147925;27;20138;-65
2022/01/18 03:35:53;;;;;;;37.45;8.38;;;;;;;;;;5149201;27;20057;-65
2022/01/18 03:38:21;;;;;;;58.42;9.43;;;;;;;;;;5130906;27;20051;-65
2022/01/18 03:40:47;;;;;;;39.55;8.32;;;;;;;;;;5132250;27;20139;-65
2022/01/18 03:43:14;;;;;;;62.22;10.05;;;;;;;;;;5133592;27;20058;-65
2022/01/18 03:45:43;;;;;;;83.55;10.10;;;;;;;;;;5153225;27;20544;-65
2022/01/18 03:48:14;;;;;;;71.18;12.52;;;;;;;;;;5153382;27;20043;-65
2022/01/18 03:50:41;;;;;;;25.10;9.45;;;;;;;;;;5153628;27;20086;-66
2022/01/18 03:53:10;;;;;;;60.55;9.85;;;;;;;;;;5150496;27;20505;-65
2022/01/18 03:55:36;;;;;;;;;;;;;;;;;;5133006;27;20047;-67
2022/01/18 03:58:03;;;;;;;59.90;10.13;;;;;;;;;;5130876;27;45712;-65
2022/01/18 04:00:30;;;;;;;52.67;9.18;;;;;;;;;;5132273;27;20053;-66
2022/01/18 04:02:57;;;;;;;55.80;10.35;;;;;;;;;;5149145;27;20055;-66
2022/01/18 04:05:24;;;;;;;47.72;8.63;;;;;;;;;;5145017;27;20091;-66
2022/01/18 04:07:51;;;;;;;40.55;8.50;;;;;;;;;;5132237;27;20082;-65
2022/01/18 04:10:18;;;;;;;59.72;9.23;;;;;;;;;;5132177;27;20588;-65
2022/01/18 04:12:44;;;;;;;30.42;7.72;;;;;;;;;;5136095;27;20472;-65
2022/01/18 04:15:12;;;;;;;67.93;8.75;;;;;;;;;;5146130;27;20070;-65
2022/01/18 04:30:40;;;;;;;35.38;8.52;;;;;;;;;;5132052;27;20052;-64
2022/01/18 04:33:06;;;;;;;60.22;10.07;;;;;;;;;;5130786;27;20059;-67
2022/01/18 04:35:33;;;;;;;54.40;9.20;;;;;;;;;;5140795;27;20101;-65
2022/01/18 04:37:59;;;;;;;46.92;9.43;;;;;;;;;;5131297;27;20051;-65
2022/01/18 04:40:29;;;;;;;47.03;9.68;;;;;;;;;;5131847;27;20044;-65
2022/01/18 04:48:26;;;;;;;77.43;9.55;;;;;;;;;;5151508;27;20066;-65
2022/01/18 04:50:54;;;;;;;52.65;9.10;;;;;;;;;;5151895;27;20130;-65
2022/01/18 04:53:20;;;;;;;41.65;6.93;;;;;;;;;;5150589;27;20058;-65
2022/01/18 04:55:53;;;;;;;70.50;8.40;;;;;;;;;;5131296;27;20131;-65
2022/01/18 04:58:20;;;;;;;58.25;8.32;;;;;;;;;;5132251;27;20048;-65
2022/01/18 05:00:48;;;;;;;58.95;8.55;;;;;;;;;;5144439;27;20087;-67
2022/01/18 05:03:14;;;;;;;24.80;7.53;;;;;;;;;;5131485;27;20047;-66
2022/01/18 05:05:41;;;;;;;43.13;6.90;;;;;;;;;;5148444;27;20497;-66
2022/01/18 05:08:13;;;;;;;41.83;7.60;;;;;;;;;;5151610;27;20056;-66
2022/01/18 05:10:40;;;;;;;45.13;8.00;;;;;;;;;;5150748;27;20138;-66
2022/01/18 05:13:18;;;;;;;70.43;9.70;;;;;;;;;;5151880;27;20047;-66
2022/01/18 05:15:51;;;;;;;35.83;6.15;;;;;;;;;;5149567;27;20475;-66
2022/01/18 05:23:23;;;;;;;55.53;7.65;;;;;;;;;;5150900;27;20517;-66
2022/01/18 05:25:50;;;;;;;44.65;7.50;;;;;;;;;;5137995;27;20054;-66
2022/01/18 05:28:17;;;;;;;28.75;6.97;;;;;;;;;;5130691;27;20051;-66
2022/01/18 05:30:43;;;;;;;75.25;8.63;;;;;;;;;;5130644;27;20054;-66
2022/01/18 05:33:09;;;;;;;33.25;6.70;;;;;;;;;;5130915;27;20058;-66
2022/01/18 05:35:36;;;;;;;31.33;6.43;;;;;;;;;;5144188;27;20054;-66
2022/01/18 05:38:04;;;;;;;32.05;6.57;;;;;;;;;;5132765;27;20047;-66
2022/01/18 05:40:31;;;;;;;50.10;7.25;;;;;;;;;;5151621;27;20058;-66
2022/01/18 05:42:58;;;;;;;34.78;7.28;;;;;;;;;;5150848;27;20058;-66
2022/01/18 05:45:24;;;;;;;44.10;7.55;;;;;;;;;;5131030;27;20528;-66
2022/01/18 05:47:51;;;;;;;36.53;5.97;;;;;;;;;;5130820;27;20517;-66
2022/01/18 05:50:17;;;;;;;48.03;6.32;;;;;;;;;;5129609;27;20540;-64
2022/01/18 05:52:44;;;;;;;70.93;6.60;;;;;;;;;;5140599;27;20051;-66
2022/01/18 05:55:10;;;;;;;40.53;7.18;;;;;;;;;;5149961;27;20087;-66
2022/01/18 05:57:38;;;;;;;41.35;6.50;;;;;;;;;;5151084;27;20087;-66
2022/01/18 06:00:08;;;;;;;29.10;6.63;;;;;;;;;;5147952;27;20064;-66
2022/01/18 06:07:53;;;;;;;34.28;5.70;;;;;;;;;;5150091;27;20057;-66
2022/01/18 06:10:19;;;;;;;19.70;5.30;;;;;;;;;;5150985;27;20488;-66
2022/01/18 06:12:45;;;;;;;49.42;5.90;;;;;;;;;;5150776;27;20519;-66
2022/01/18 06:15:12;;;;;;;23.17;4.65;;;;;;;;;;5143856;27;20431;-66
2022/01/18 06:17:38;;;;;;;28.92;5.05;;;;;;;;;;5150394;27;20051;-66
2022/01/18 06:20:06;;;;;;;24.27;4.90;;;;;;;;;;5147906;27;20069;-66
2022/01/18 06:22:32;;;;;;;28.70;5.40;;;;;;;;;;5130171;27;20056;-66
2022/01/18 06:24:58;;;;;;;35.28;5.63;;;;;;;;;;5129393;27;20778;-66
2022/01/18 06:27:25;;;;;;;29.52;5.60;;;;;;;;;;5130763;27;20139;-66
2022/01/18 06:29:52;;;;;;;29.05;5.20;;;;;;;;;;5151004;27;20058;-66
2022/01/18 06:32:18;;;;;;;26.98;5.28;;;;;;;;;;5148853;27;20055;-65
2022/01/18 06:34:45;;;;;;;17.08;4.82;;;;;;;;;;5140206;27;20047;-66
2022/01/18 06:37:11;;;;;;;22.63;5.63;;;;;;;;;;5151118;27;20073;-66
2022/01/18 06:39:37;;;;;;;39.28;5.60;;;;;;;;;;5149720;27;20432;-66
2022/01/18 06:42:07;;;;;;;22.73;5.22;;;;;;;;;;5150214;27;20528;-66
2022/01/18 06:44:33;;;;;;;26.05;6.55;;;;;;;;;;5141426;27;20047;-66
2022/01/18 06:46:59;;;;;;;43.35;6.35;;;;;;;;;;5130564;27;20051;-66
2022/01/18 06:49:25;;;;;;;31.80;5.75;;;;;;;;;;5129356;27;20058;-66
2022/01/18 06:51:52;;;;;;;49.65;5.85;;;;;;;;;;5130243;27;20511;-66
2022/01/18 06:54:18;;;;;;;17.65;5.68;;;;;;;;;;5130210;27;20048;-66
2022/01/18 06:56:48;;;;;;;59.75;5.78;;;;;;;;;;5146080;27;20062;-66
2022/01/18 06:59:15;;;;;;;24.38;5.15;;;;;;;;;;5148224;27;20043;-66
2022/01/18 07:01:41;;;;;;;56.25;5.93;;;;;;;;;;5150196;27;20075;-66
2022/01/18 07:04:07;;;;;;;55.63;6.55;;;;;;;;;;5150232;27;20135;-67
2022/01/18 07:06:34;;;;;;;39.92;6.05;;;;;;;;;;5147787;27;20166;-66
2022/01/18 07:09:01;;;;;;;32.90;4.47;;;;;;;;;;5149958;27;20051;-66
2022/01/18 07:11:27;;;;;;;32.17;5.82;;;;;;;;;;5149606;27;20051;-66
2022/01/18 07:13:54;;;;;;;23.25;4.97;;;;;;;;;;5129638;27;20063;-67
2022/01/18 07:16:20;;;;;;;20.27;4.97;;;;;;;;;;5129586;27;20472;-66
2022/01/18 07:18:46;;;;;;;54.13;6.18;;;;;;;;;;5129074;27;20121;-66
2022/01/18 07:21:13;;;;;;;32.30;5.65;;;;;;;;;;5129426;27;20494;-66
2022/01/18 07:23:39;;;;;;;45.72;5.25;;;;;;;;;;5148314;27;20047;-66
2022/01/18 07:26:08;;;;;;;62.92;5.45;;;;;;;;;;5131892;27;20511;-66
2022/01/18 07:28:35;;;;;;;40.33;5.45;;;;;;;;;;5146462;27;20138;-66
2022/01/18 07:31:01;;;;;;;41.33;5.03;;;;;;;;;;5141237;27;20527;-65
2022/01/18 07:33:27;;;;;;;53.60;5.68;;;;;;;;;;5128827;27;20154;-65
2022/01/18 07:35:54;;;;;;;21.55;4.70;;;;;;;;;;5129743;27;20058;-65
2022/01/18 07:38:20;;;;;;;31.10;4.72;;;;;;;;;;5129283;27;20150;-65
2022/01/18 07:40:49;;;;;;;24.55;4.38;;;;;;;;;;5129047;27;20050;-65
2022/01/18 07:43:17;;;;;;;36.17;4.53;;;;;;;;;;5141275;27;20056;-65
2022/01/18 07:45:44;;;;;;;28.38;4.30;;;;;;;;;;5129341;27;20575;-65
2022/01/18 07:48:11;;;;;;;35.03;5.28;;;;;;;;;;5144305;27;20092;-65
2022/01/18 07:50:38;;;;;;;25.48;4.10;;;;;;;;;;5150288;27;20145;-65
2022/01/18 07:53:05;;;;;;;22.45;3.13;;;;;;;;;;5145331;27;20695;-65
2022/01/18 07:55:31;;;;;;;18.63;3.35;;;;;;;;;;5144839;27;20048;-65
2022/01/18 07:57:59;;;;;;;14.07;3.03;;;;;;;;;;5140182;27;20051;-66
2022/01/18 08:00:26;;;;;;;26.48;3.08;;;;;;;;;;5137527;27;20507;-65
2022/01/18 08:02:53;;;;;;;32.38;4.15;;;;;;;;;;5130111;27;20056;-66
2022/01/18 08:05:19;;;;;;;14.13;2.72;;;;;;;;;;5129320;27;20048;-66
2022/01/18 08:07:45;;;;;;;12.57;2.85;;;;;;;;;;5129159;27;20268;-65
2022/01/18 08:10:12;;;;;;;17.27;3.55;;;;;;;;;;5141859;27;20090;-66
2022/01/18 08:12:39;;;;;;;16.40;3.25;;;;;;;;;;5129068;27;20580;-66
2022/01/18 08:15:14;;;;;;;15.63;3.47;;;;;;;;;;5129449;27;20082;-65
2022/01/18 08:17:50;;;;;;;14.05;3.00;;;;;;;;;;5146621;27;20428;-65
2022/01/18 08:20:18;;;;;;;12.93;3.23;;;;;;;;;;5148788;27;20096;-66
2022/01/18 08:22:45;;;;;;;8.25;3.10;;;;;;;;;;5147735;27;20562;-66
2022/01/18 08:25:12;;;;;;;10.82;3.42;;;;;;;;;;5143837;27;20055;-65
2022/01/18 08:27:39;;;;;;;15.18;3.80;;;;;;;;;;5146417;27;20058;-65
2022/01/18 08:30:07;;;;;;;11.43;3.70;;;;;;;;;;5137582;27;20497;-65
2022/01/18 08:32:33;;;;;;;24.50;4.53;;;;;;;;;;5149544;27;20055;-65
2022/01/18 08:35:00;;;;;;;13.85;4.18;;;;;;;;;;5140704;27;20520;-65
2022/01/18 08:37:26;;;;;;;18.10;3.90;;;;;;;;;;5145300;27;20402;-66
2022/01/18 08:39:52;;;;;;;31.73;5.20;;;;;;;;;;5153542;27;20053;-66
2022/01/18 08:42:19;;;;;;;17.13;4.15;;;;;;;;;;5152042;27;20138;-65
2022/01/18 08:44:45;;;;;;;25.08;4.05;;;;;;;;;;5153132;27;20055;-66
2022/01/18 08:47:15;;;;;;;20.27;3.92;;;;;;;;;;5143248;27;20058;-65
2022/01/18 08:49:42;;;;;;;51.13;3.88;;;;;;;;;;5132780;27;20062;-65
2022/01/18 08:52:08;;;;;;;24.92;3.10;;;;;;;;;;5131256;27;20082;-66
2022/01/18 08:54:35;;;;;;;32.65;3.38;;;;;;;;;;5146294;27;20051;-66
2022/01/18 08:57:02;;;;;;;26.10;3.58;;;;;;;;;;5149393;27;20517;-66
2022/01/18 08:59:29;;;;;;;22.33;4.40;;;;;;;;;;5134126;27;20056;-66
2022/01/18 09:01:57;;;;;;;10.85;3.35;;;;;;;;;;5141532;27;20746;-66
2022/01/18 09:04:27;;;;;;;19.58;3.35;;;;;;;;;;5142283;27;20085;-66
2022/01/18 09:06:53;;;;;;;12.55;3.38;;;;;;;;;;5133642;27;20048;-66
2022/01/18 09:09:20;;;;;;;21.30;3.42;;;;;;;;;;5152993;27;20047;-65
2022/01/18 09:11:46;;;;;;;12.55;3.03;;;;;;;;;;5146057;27;20511;-66
2022/01/18 09:14:13;;;;;;;10.65;2.97;;;;;;;;;;5139944;27;20048;-65
2022/01/18 09:16:41;;;;;;;19.60;3.45;;;;;;;;;;5137428;27;20596;-65
2022/01/18 09:19:07;;;;;;;94.40;6.90;;;;;;;;;;5144726;27;20066;-66
2022/01/18 09:21:34;;;;;;;48.65;4.80;;;;;;;;;;5137171;27;20055;-66
2022/01/18 09:24:02;;;;;;;17.13;4.20;;;;;;;;;;5145463;27;20059;-65
2022/01/18 09:26:28;;;;;;;27.90;4.75;;;;;;;;;;5148590;27;20077;-66
2022/01/18 09:28:54;;;;;;;63.38;6.05;;;;;;;;;;5148247;27;20553;-65
2022/01/18 09:31:21;;;;;;;75.28;6.85;;;;;;;;;;5145170;27;20971;-66
2022/01/18 09:33:47;;;;;;;47.28;4.90;;;;;;;;;;5131972;27;20100;-65
2022/01/18 09:36:14;;;;;;;67.72;4.88;;;;;;;;;;5152496;27;20073;-65
2022/01/18 09:38:40;;;;;;;72.00;5.63;;;;;;;;;;5163000;27;20141;-65
2022/01/18 09:41:11;;;;;;;44.42;6.13;;;;;;;;;;5140189;27;20047;-64
2022/01/18 09:43:39;;;;;;;42.38;5.72;;;;;;;;;;5151931;27;20138;-64
2022/01/18 09:46:06;;;;;;;73.90;6.20;;;;;;;;;;5152284;27;20059;-64
2022/01/18 09:48:32;;;;;;;46.63;5.95;;;;;;;;;;5150014;27;20104;-63
2022/01/18 09:50:59;;;;;;;38.13;7.00;;;;;;;;;;5134305;27;20074;-63
2022/01/18 09:53:25;;;;;;;51.47;6.97;;;;;;;;;;5139199;27;20507;-63
2022/01/18 09:55:53;;;;;;;17.38;6.20;;;;;;;;;;5151778;27;20150;-63
2022/01/18 09:58:20;;;;;;;77.88;8.15;;;;;;;;;;5146310;27;20580;-63
2022/01/18 10:00:46;;;;;;;40.55;7.60;;;;;;;;;;5134393;27;20073;-64
2022/01/18 10:03:28;;;;;;;36.03;7.45;;;;;;;;;;5149121;27;20051;-65
2022/01/18 10:05:55;;;;;;;47.67;7.70;;;;;;;;;;5127216;27;20574;-64
2022/01/18 10:08:22;;;;;;;37.40;7.25;;;;;;;;;;5146591;27;20051;-64
2022/01/18 10:10:50;;;;;;;70.95;8.05;;;;;;;;;;5138840;27;20055;-64
2022/01/18 10:13:21;;;;;;;88.73;8.60;;;;;;;;;;5134938;27;20096;-64
2022/01/18 10:15:59;;;;;;;50.60;7.38;;;;;;;;;;5151672;27;20292;-64
2022/01/18 10:18:49;;;;;;;100.97;14.50;;;;;;;;;;5138960;27;20521;-64
2022/01/18 10:21:29;;;;;;;79.72;9.90;;;;;;;;;;5131408;27;20055;-64
2022/01/18 10:24:16;;;;;;;58.50;7.97;;;;;;;;;;5134028;27;20090;-64
2022/01/18 10:26:43;;;;;;;180.48;11.30;;;;;;;;;;5132756;27;20046;-64
2022/01/18 10:29:10;;;;;;;88.88;9.32;;;;;;;;;;5131563;27;20073;-64
2022/01/18 10:31:42;;;;;;;85.32;8.13;;;;;;;;;;5129382;27;20527;-64
2022/01/18 10:37:05;;;;;;;197.00;14.68;;;;;;;;;;5131197;27;20512;-64
2022/01/18 10:39:37;;;;;;;145.70;11.73;;;;;;;;;;5131091;27;20127;-64
2022/01/18 10:42:13;;;;;;;73.00;9.50;;;;;;;;;;5139938;27;20062;-64
2022/01/18 10:44:39;;;;;;;115.68;12.15;;;;;;;;;;5131165;27;20058;-64
2022/01/18 10:47:06;;;;;;;88.95;11.02;;;;;;;;;;5129459;27;20252;-64
2022/01/18 10:49:40;;;;;;;115.40;12.45;;;;;;;;;;5131878;27;20055;-64
2022/01/18 10:52:18;;;;;;;148.80;11.73;;;;;;;;;;5133175;27;20059;-64
2022/01/18 10:54:46;;;;;;;75.32;10.40;;;;;;;;;;5148919;27;20075;-64
2022/01/18 10:57:16;;;;;;;131.38;12.60;;;;;;;;;;5141781;27;20055;-64
2022/01/18 10:59:43;;;;;;;81.93;9.80;;;;;;;;;;5137800;27;20052;-64
2022/01/18 11:02:17;;;;;;;119.30;12.90;;;;;;;;;;5142060;27;20051;-64
2022/01/18 11:04:45;;;;;;;45.38;10.75;;;;;;;;;;5136762;27;20052;-64
2022/01/18 11:07:12;;;;;;;117.33;14.87;;;;;;;;;;5130774;27;20055;-63
2022/01/18 11:09:39;;;;;;;55.22;10.68;;;;;;;;;;5132362;27;20670;-65
2022/01/18 11:12:06;;;;;;;27.60;10.43;;;;;;;;;;5130148;27;20516;-65
2022/01/18 11:14:33;;;;;;;36.58;9.88;;;;;;;;;;5131508;27;20155;-65
2022/01/18 11:17:00;;;;;;;53.22;11.43;;;;;;;;;;5130188;27;20047;-64
2022/01/18 11:19:33;;;;;;;29.23;10.55;;;;;;;;;;5129882;27;20146;-65
2022/01/18 11:22:04;;;;;;;35.90;10.43;;;;;;;;;;5134336;27;20056;-64
2022/01/18 11:24:31;;;;;;;47.15;10.35;;;;;;;;;;5130609;27;20454;-65
2022/01/18 11:26:57;;;;;;;63.20;10.88;;;;;;;;;;5129608;27;20051;-64
2022/01/18 11:29:25;;;;;;;28.20;10.07;;;;;;;;;;5129881;27;20130;-65
2022/01/18 11:31:53;;;;;;;76.53;11.98;;;;;;;;;;5135914;27;20056;-65
2022/01/18 11:34:49;;;;;;;47.35;10.48;;;;;;;;;;5129733;27;20051;-64
2022/01/18 11:37:48;;;;;;;60.70;10.65;;;;;;;;;;5072711;27;20045;-65
2022/01/18 11:40:16;;;;;;;31.02;9.75;;;;;;;;;;5090664;27;20190;-65
2022/01/18 11:42:42;;;;;;;53.25;13.45;;;;;;;;;;5136753;27;20056;-65
2022/01/18 11:45:24;;;;;;;97.43;10.20;;;;;;;;;;5136832;27;20506;-65
2022/01/18 11:48:04;;;;;;;62.55;8.75;;;;;;;;;;5136562;27;20575;-64
2022/01/18 11:50:33;;;;;;;56.90;7.93;;;;;;;;;;5134093;27;20057;-64
2022/01/18 11:53:24;;;;;;;26.38;6.75;;;;;;;;;;5137490;27;20051;-65
2022/01/18 11:55:58;;;;;;;57.47;8.02;;;;;;;;;;5132000;27;20096;-65
2022/01/18 11:58:25;;;;;;;51.17;7.65;;;;;;;;;;5136519;27;20061;-65
2022/01/18 12:00:58;;;;;;;48.10;7.13;;;;;;;;;;5138235;27;20503;-64
2022/01/18 12:03:29;;;;;;;35.08;6.10;;;;;;;;;;5151504;27;20142;-65
2022/01/18 12:05:59;;;;;;;38.13;5.93;;;;;;;;;;5148572;27;20516;-65
2022/01/18 12:08:38;;;;;;;53.92;6.20;;;;;;;;;;5132960;27;20611;-64
2022/01/18 12:11:20;;;;;;;44.22;5.90;;;;;;;;;;5137104;27;20047;-64
2022/01/18 12:13:47;;;;;;;36.95;6.65;;;;;;;;;;5143255;27;20138;-64
2022/01/18 12:16:18;;;;;;;17.70;5.80;;;;;;;;;;5133590;27;20612;-64
2022/01/18 12:18:48;;;;;;;15.35;5.22;;;;;;;;;;5132971;27;20051;-64
2022/01/18 12:21:17;;;;;;;40.60;6.82;;;;;;;;;;5134819;27;20048;-64
2022/01/18 12:23:44;;;;;;;56.92;7.30;;;;;;;;;;5137532;27;20048;-64
2022/01/18 12:26:28;;;;;;;49.70;7.00;;;;;;;;;;5131701;27;20134;-64
2022/01/18 12:34:25;;;;;;;48.63;7.57;;;;;;;;;;5132874;27;20047;-64
2022/01/18 12:36:51;;;;;;;28.55;7.30;;;;;;;;;;5132192;27;20061;-64
2022/01/18 12:39:18;;;;;;;44.65;10.07;;;;;;;;;;5133852;27;20055;-64
2022/01/18 12:41:47;;;;;;;27.30;8.00;;;;;;;;;;5132042;27;20139;-64
2022/01/18 12:44:22;;;;;;;32.85;8.70;;;;;;;;;;5131940;27;20093;-64
2022/01/18 12:46:58;;;;;;;40.25;10.27;;;;;;;;;;5131289;27;20419;-64
2022/01/18 12:49:25;;;;;;;41.85;10.10;;;;;;;;;;5131897;27;20055;-64
2022/01/18 12:52:10;;;;;;;33.17;10.18;;;;;;;;;;5131664;27;20063;-64
2022/01/18 12:54:38;;;;;;;46.38;13.00;;;;;;;;;;5134438;27;20572;-64
2022/01/18 12:57:10;;;;;;;47.83;12.80;;;;;;;;;;5136507;27;20682;-65
2022/01/18 12:59:55;;;;;;;49.80;12.13;;;;;;;;;;5132472;27;20108;-64
2022/01/18 13:02:22;;;;;;;45.13;12.80;;;;;;;;;;5132258;27;20047;-64
2022/01/18 13:04:55;;;;;;;47.30;14.05;;;;;;;;;;5133092;27;20070;-64
2022/01/18 13:07:21;;;;;;;43.35;14.23;;;;;;;;;;5132693;27;20057;-64
2022/01/18 13:10:08;;;;;;;47.22;14.20;;;;;;;;;;5130923;27;20048;-64
2022/01/18 13:12:36;;;;;;;54.10;16.58;;;;;;;;;;5143552;27;20043;-65
2022/01/18 13:15:05;;;;;;;50.78;15.57;;;;;;;;;;5142748;27;20152;-64
2022/01/18 13:23:04;;;;;;;82.47;16.63;;;;;;;;;;5130951;27;20193;-64
2022/01/18 13:25:45;;;;;;;66.78;17.45;;;;;;;;;;5131567;27;20048;-65
2022/01/18 13:28:11;;;;;;;61.20;17.35;;;;;;;;;;5132971;27;20567;-64
2022/01/18 13:30:39;;;;;;;67.53;18.20;;;;;;;;;;5133329;27;20147;-64
2022/01/18 13:33:06;;;;;;;60.53;17.33;;;;;;;;;;5128184;27;20052;-64
2022/01/18 13:35:33;;;;;;;59.80;19.52;;;;;;;;;;5137110;27;20061;-65
2022/01/18 13:38:00;;;;;;;76.53;20.15;;;;;;;;;;5137517;27;20056;-64
2022/01/18 13:40:29;;;;;;;58.75;19.20;;;;;;;;;;5143179;27;20051;-65
2022/01/18 13:43:04;;;;;;;64.95;20.45;;;;;;;;;;5149666;27;20085;-64
2022/01/18 13:45:31;;;;;;;64.50;20.63;;;;;;;;;;5149000;27;20805;-65
2022/01/18 13:48:02;;;;;;;68.03;20.90;;;;;;;;;;5134805;27;20083;-65
2022/01/18 13:50:44;;;;;;;69.57;20.33;;;;;;;;;;5137523;27;20073;-65
2022/01/18 13:53:21;;;;;;;76.43;20.30;;;;;;;;;;5141929;27;20055;-65
2022/01/18 13:55:52;;;;;;;67.22;21.08;;;;;;;;;;5131659;27;20152;-64
2022/01/18 13:58:28;;;;;;;65.63;21.58;;;;;;;;;;5130193;27;20117;-64
2022/01/18 14:01:08;;;;;;;74.13;22.45;;;;;;;;;;5135257;27;20061;-64
2022/01/18 14:03:37;;;;;;;70.03;21.90;;;;;;;;;;5145177;27;20151;-65
2022/01/18 14:06:05;;;;;;;69.63;22.33;;;;;;;;;;5143782;27;20134;-64
2022/01/18 14:08:36;;;;;;;70.38;23.20;;;;;;;;;;5132250;27;20048;-64
2022/01/18 14:11:04;;;;;;;119.57;43.30;;;;;;;;;;5142727;27;20047;-64
2022/01/18 14:13:35;;;;;;;80.00;29.15;;;;;;;;;;5149463;27;20512;-65
2022/01/18 14:16:03;;;;;;;71.30;25.02;;;;;;;;;;5133054;27;20060;-64
2022/01/18 14:18:48;;;;;;;89.97;31.58;;;;;;;;;;5134245;27;20066;-65
2022/01/18 14:21:28;;;;;;;73.93;23.55;;;;;;;;;;5129988;27;20058;-64
2022/01/18 14:24:14;;;;;;;65.88;21.63;;;;;;;;;;5131052;27;20051;-64
2022/01/18 14:27:00;;;;;;;70.63;23.08;;;;;;;;;;5145138;27;20147;-64
2022/01/18 14:29:45;;;;;;;62.58;20.73;;;;;;;;;;5140802;27;20051;-64
2022/01/18 14:32:13;;;;;;;63.97;21.50;;;;;;;;;;5151046;27;20149;-64
2022/01/18 14:34:41;;;;;;;61.43;20.10;;;;;;;;;;5148559;27;20146;-64
2022/01/18 14:37:11;;;;;;;61.45;20.98;;;;;;;;;;5147568;27;20326;-64
2022/01/18 14:40:10;;;;;;;103.90;39.75;;;;;;;;;;5130380;27;20051;-64
2022/01/18 14:42:43;;;;;;;68.38;20.52;;;;;;;;;;5074612;27;20052;-65
2022/01/18 14:47:40;;;;;;;56.47;22.75;;;;;;;;;;5129365;27;20170;-64
2022/01/18 14:50:08;;;;;;;88.13;28.10;;;;;;;;;;5134392;27;20048;-65
2022/01/18 14:52:34;;;;;;;73.60;21.83;;;;;;;;;;5141582;27;20599;-65
2022/01/18 14:55:01;;;;;;;67.60;21.67;;;;;;;;;;5140350;27;20056;-64
2022/01/18 14:57:28;;;;;;;57.15;17.55;;;;;;;;;;5131132;27;20052;-65
2022/01/18 14:59:58;;;;;;;52.13;17.98;;;;;;;;;;5140942;27;20055;-64
2022/01/18 15:02:24;;;;;;;55.90;17.77;;;;;;;;;;5147802;27;20457;-64
2022/01/18 15:04:51;;;;;;;55.85;17.35;;;;;;;;;;5133496;27;20136;-64
2022/01/18 15:07:17;;;;;;;59.67;16.70;;;;;;;;;;5146141;27;20096;-64
2022/01/18 15:09:44;;;;;;;53.45;19.52;;;;;;;;;;5138248;27;20048;-64
2022/01/18 15:12:10;;;;;;;50.95;19.30;;;;;;;;;;5111634;27;20079;-64
2022/01/18 15:14:36;;;;;;;62.75;19.70;;;;;;;;;;5129477;27;20052;-65
2022/01/18 15:17:05;;;;;;;59.97;19.23;;;;;;;;;;5131165;27;20162;-64
2022/01/18 15:19:31;;;;;;;46.88;17.52;;;;;;;;;;5135325;27;20130;-65
2022/01/18 15:21:57;;;;;;;53.55;17.88;;;;;;;;;;5139888;27;20047;-64
2022/01/18 15:24:24;;;;;;;60.40;19.65;;;;;;;;;;5137414;27;20054;-65
2022/01/18 15:26:50;;;;;;;61.30;21.13;;;;;;;;;;5150497;27;20531;-64
2022/01/18 15:29:16;;;;;;;55.15;20.45;;;;;;;;;;5141728;27;20044;-65
2022/01/18 15:31:43;;;;;;;62.53;22.08;;;;;;;;;;5130503;27;20138;-64
2022/01/18 15:34:09;;;;;;;70.30;21.58;;;;;;;;;;5136029;27;20058;-64
2022/01/18 15:36:36;;;;;;;59.17;20.73;;;;;;;;;;5148712;27;20043;-64
2022/01/18 15:39:03;;;;;;;62.58;20.88;;;;;;;;;;5148184;27;20050;-64
2022/01/18 15:41:29;;;;;;;64.00;22.77;;;;;;;;;;5133579;27;20043;-64
2022/01/18 15:43:55;;;;;;;72.25;23.27;;;;;;;;;;5147508;27;20057;-64
2022/01/18 15:46:22;;;;;;;66.80;23.90;;;;;;;;;;5147201;27;20109;-64
2022/01/18 15:48:51;;;;;;;51.30;21.58;;;;;;;;;;5146460;27;20476;-64
2022/01/18 15:51:17;;;;;;;67.88;22.67;;;;;;;;;;5152428;27;20195;-64
2022/01/18 15:53:45;;;;;;;66.32;23.17;;;;;;;;;;5148193;27;20086;-64
2022/01/18 15:56:13;;;;;;;58.57;20.60;;;;;;;;;;5140347;27;20056;-64
2022/01/18 15:58:40;;;;;;;59.78;23.17;;;;;;;;;;5150676;27;20516;-64
2022/01/18 16:01:06;;;;;;;61.83;23.45;;;;;;;;;;5152991;27;20059;-64
2022/01/18 16:03:33;;;;;;;56.63;23.25;;;;;;;;;;5137210;27;20057;-64
2022/01/18 16:05:59;;;;;;;67.55;24.42;;;;;;;;;;5151426;27;20154;-64